sensor_id;sensor_type;location;lat;lon;timestamp;pressure;altitude;pressure_sealevel;temperature;humidity
34658;BME280;20865;43.312;27.152;2023-03-23T00:01:30;100507.69;;;17.94;49.36
34658;BME280;20865;43.312;27.152;2023-03-23T00:03:59;100511.48;;;17.74;49.87
34658;BME280;20865;43.312;27.152;2023-03-23T00:06:27;100502.09;;;17.66;50.16
34658;BME280;20865;43.312;27.152;2023-03-23T00:08:55;100502.95;;;17.66;50.05
34658;BME280;20865;43.312;27.152;2023-03-23T00:11:25;100508.05;;;17.63;50.16
34658;BME280;20865;43.312;27.152;2023-03-23T00:13:54;100506.31;;;17.62;50.11
34658;BME280;20865;43.312;27.152;2023-03-23T00:16:23;100507.66;;;17.62;50.11
34658;BME280;20865;43.312;27.152;2023-03-23T00:18:52;100498.30;;;17.85;49.51
34658;BME280;20865;43.312;27.152;2023-03-23T00:21:19;100506.73;;;17.95;49.25
34658;BME280;20865;43.312;27.152;2023-03-23T00:23:46;100504.51;;;17.95;49.13
34658;BME280;20865;43.312;27.152;2023-03-23T00:26:13;100498.75;;;18.01;48.96
34658;BME280;20865;43.312;27.152;2023-03-23T00:28:40;100500.66;;;17.99;49.06
34658;BME280;20865;43.312;27.152;2023-03-23T00:31:07;100499.80;;;17.98;49.09
34658;BME280;20865;43.312;27.152;2023-03-23T00:33:36;100493.45;;;17.99;49.00
34658;BME280;20865;43.312;27.152;2023-03-23T00:36:08;100489.47;;;17.98;49.01
34658;BME280;20865;43.312;27.152;2023-03-23T00:38:35;100488.05;;;17.99;48.99
34658;BME280;20865;43.312;27.152;2023-03-23T00:41:02;100490.95;;;18.03;48.89
34658;BME280;20865;43.312;27.152;2023-03-23T00:43:30;100491.03;;;18.02;48.90
34658;BME280;20865;43.312;27.152;2023-03-23T00:45:57;100483.20;;;17.97;49.10
34658;BME280;20865;43.312;27.152;2023-03-23T00:48:26;100482.64;;;17.99;49.10
34658;BME280;20865;43.312;27.152;2023-03-23T00:50:53;100480.50;;;17.97;49.26
34658;BME280;20865;43.312;27.152;2023-03-23T00:53:20;100478.17;;;17.98;49.22
34658;BME280;20865;43.312;27.152;2023-03-23T00:55:47;100473.56;;;18.00;49.22
34658;BME280;20865;43.312;27.152;2023-03-23T00:58:15;100473.19;;;17.99;49.23
34658;BME280;20865;43.312;27.152;2023-03-23T01:00:42;100478.66;;;17.98;49.28
34658;BME280;20865;43.312;27.152;2023-03-23T01:03:09;100473.73;;;17.97;49.39
34658;BME280;20865;43.312;27.152;2023-03-23T01:05:40;100475.95;;;17.98;49.39
34658;BME280;20865;43.312;27.152;2023-03-23T01:08:07;100473.53;;;17.93;49.52
34658;BME280;20865;43.312;27.152;2023-03-23T01:10:36;100474.70;;;17.96;49.41
34658;BME280;20865;43.312;27.152;2023-03-23T01:13:04;100482.13;;;17.93;49.51
34658;BME280;20865;43.312;27.152;2023-03-23T01:15:31;100476.34;;;17.99;49.29
34658;BME280;20865;43.312;27.152;2023-03-23T01:17:58;100478.77;;;17.96;49.26
34658;BME280;20865;43.312;27.152;2023-03-23T01:20:25;100478.77;;;17.96;49.20
34658;BME280;20865;43.312;27.152;2023-03-23T01:22:54;100474.22;;;17.97;49.10
34658;BME280;20865;43.312;27.152;2023-03-23T01:25:23;100475.19;;;17.96;49.20
34658;BME280;20865;43.312;27.152;2023-03-23T01:27:49;100475.64;;;17.95;49.35
34658;BME280;20865;43.312;27.152;2023-03-23T01:30:17;100472.77;;;17.98;49.07
34658;BME280;20865;43.312;27.152;2023-03-23T01:32:44;100474.88;;;17.93;49.14
34658;BME280;20865;43.312;27.152;2023-03-23T01:35:16;100479.70;;;17.95;49.09
34658;BME280;20865;43.312;27.152;2023-03-23T01:37:39;100474.88;;;17.93;49.19
34658;BME280;20865;43.312;27.152;2023-03-23T01:40:06;100479.48;;;17.91;49.27
34658;BME280;20865;43.312;27.152;2023-03-23T01:42:34;100474.09;;;17.91;49.32
34658;BME280;20865;43.312;27.152;2023-03-23T01:47:54;100472.84;;;17.90;49.43
34658;BME280;20865;43.312;27.152;2023-03-23T01:50:17;100475.92;;;17.91;49.36
34658;BME280;20865;43.312;27.152;2023-03-23T01:52:44;100474.09;;;17.91;49.38
34658;BME280;20865;43.312;27.152;2023-03-23T01:55:11;100479.11;;;17.90;49.39
34658;BME280;20865;43.312;27.152;2023-03-23T01:57:37;100477.27;;;17.91;49.47
34658;BME280;20865;43.312;27.152;2023-03-23T02:00:05;100479.11;;;17.90;49.44
34658;BME280;20865;43.312;27.152;2023-03-23T02:02:34;100476.47;;;17.89;49.50
34658;BME280;20865;43.312;27.152;2023-03-23T02:05:03;100476.89;;;17.90;49.49
34658;BME280;20865;43.312;27.152;2023-03-23T02:07:29;100473.15;;;17.92;49.34
34658;BME280;20865;43.312;27.152;2023-03-23T02:09:58;100484.03;;;17.91;49.41
34658;BME280;20865;43.312;27.152;2023-03-23T02:12:26;100482.98;;;17.93;49.40
34658;BME280;20865;43.312;27.152;2023-03-23T02:14:53;100488.22;;;17.96;49.34
34658;BME280;20865;43.312;27.152;2023-03-23T02:17:31;100486.45;;;17.95;49.46
34658;BME280;20865;43.312;27.152;2023-03-23T02:22:37;100483.75;;;17.95;49.39
34658;BME280;20865;43.312;27.152;2023-03-23T02:27:50;100489.57;;;17.96;49.26
34658;BME280;20865;43.312;27.152;2023-03-23T02:30:14;100488.29;;;17.95;49.31
34658;BME280;20865;43.312;27.152;2023-03-23T02:35:20;100487.36;;;17.96;49.20
34658;BME280;20865;43.312;27.152;2023-03-23T02:37:40;100492.45;;;17.93;49.29
34658;BME280;20865;43.312;27.152;2023-03-23T02:40:07;100487.42;;;17.94;49.20
34658;BME280;20865;43.312;27.152;2023-03-23T02:42:36;100493.70;;;17.95;49.21
34658;BME280;20865;43.312;27.152;2023-03-23T02:45:07;100498.62;;;17.95;49.17
34658;BME280;20865;43.312;27.152;2023-03-23T02:47:36;100500.52;;;18.09;48.80
34658;BME280;20865;43.312;27.152;2023-03-23T02:50:05;100499.83;;;18.05;48.83
34658;BME280;20865;43.312;27.152;2023-03-23T02:52:33;100498.41;;;17.91;49.20
34658;BME280;20865;43.312;27.152;2023-03-23T02:55:01;100495.81;;;17.90;49.35
34658;BME280;20865;43.312;27.152;2023-03-23T02:57:29;100503.50;;;17.89;49.38
34658;BME280;20865;43.312;27.152;2023-03-23T02:59:56;100500.52;;;17.86;49.38
34658;BME280;20865;43.312;27.152;2023-03-23T03:02:25;100510.67;;;17.90;49.46
34658;BME280;20865;43.312;27.152;2023-03-23T03:07:33;100512.34;;;17.92;49.24
34658;BME280;20865;43.312;27.152;2023-03-23T03:15:17;100509.01;;;17.87;48.66
34658;BME280;20865;43.312;27.152;2023-03-23T03:17:44;100514.03;;;17.86;48.66
34658;BME280;20865;43.312;27.152;2023-03-23T03:20:10;100512.19;;;17.87;48.74
34658;BME280;20865;43.312;27.152;2023-03-23T03:22:40;100515.77;;;17.87;48.79
34658;BME280;20865;43.312;27.152;2023-03-23T03:25:08;100518.08;;;17.86;48.78
34658;BME280;20865;43.312;27.152;2023-03-23T03:27:38;100520.85;;;17.84;48.88
34658;BME280;20865;43.312;27.152;2023-03-23T03:30:07;100530.80;;;17.84;48.92
34658;BME280;20865;43.312;27.152;2023-03-23T03:32:39;100535.47;;;17.65;49.24
34658;BME280;20865;43.312;27.152;2023-03-23T03:35:06;100533.20;;;17.73;49.09
34658;BME280;20865;43.312;27.152;2023-03-23T03:37:35;100532.52;;;17.60;49.21
34658;BME280;20865;43.312;27.152;2023-03-23T03:40:06;100536.41;;;17.63;49.36
34658;BME280;20865;43.312;27.152;2023-03-23T03:42:35;100536.52;;;17.53;49.53
34658;BME280;20865;43.312;27.152;2023-03-23T03:45:02;100536.30;;;17.49;49.42
34658;BME280;20865;43.312;27.152;2023-03-23T03:47:29;100530.36;;;17.43;49.36
34658;BME280;20865;43.312;27.152;2023-03-23T03:49:56;100536.23;;;17.51;49.31
34658;BME280;20865;43.312;27.152;2023-03-23T03:52:23;100533.12;;;17.50;49.24
34658;BME280;20865;43.312;27.152;2023-03-23T03:54:49;100539.16;;;17.55;49.13
34658;BME280;20865;43.312;27.152;2023-03-23T03:57:16;100530.95;;;17.56;48.70
34658;BME280;20865;43.312;27.152;2023-03-23T03:59:43;100534.08;;;17.49;48.49
34658;BME280;20865;43.312;27.152;2023-03-23T04:02:11;100540.77;;;17.50;48.26
34658;BME280;20865;43.312;27.152;2023-03-23T04:04:39;100535.64;;;17.37;47.95
34658;BME280;20865;43.312;27.152;2023-03-23T04:07:07;100532.23;;;17.33;48.19
34658;BME280;20865;43.312;27.152;2023-03-23T04:09:35;100526.73;;;17.35;48.15
34658;BME280;20865;43.312;27.152;2023-03-23T04:12:03;100533.10;;;17.34;47.90
34658;BME280;20865;43.312;27.152;2023-03-23T04:14:30;100543.33;;;17.36;47.89
34658;BME280;20865;43.312;27.152;2023-03-23T04:16:56;100536.13;;;17.28;47.96
34658;BME280;20865;43.312;27.152;2023-03-23T04:19:24;100527.00;;;17.30;48.11
34658;BME280;20865;43.312;27.152;2023-03-23T04:21:53;100525.00;;;17.34;48.39
34658;BME280;20865;43.312;27.152;2023-03-23T04:24:20;100538.17;;;17.40;48.34
34658;BME280;20865;43.312;27.152;2023-03-23T04:26:49;100538.95;;;17.42;48.52
34658;BME280;20865;43.312;27.152;2023-03-23T04:29:18;100538.87;;;17.44;48.48
34658;BME280;20865;43.312;27.152;2023-03-23T04:31:45;100539.48;;;17.49;48.42
34658;BME280;20865;43.312;27.152;2023-03-23T04:34:13;100541.16;;;17.51;48.42
34658;BME280;20865;43.312;27.152;2023-03-23T04:36:40;100543.38;;;17.52;48.29
34658;BME280;20865;43.312;27.152;2023-03-23T04:39:08;100551.86;;;17.53;48.18
34658;BME280;20865;43.312;27.152;2023-03-23T04:41:36;100549.37;;;17.57;48.01
34658;BME280;20865;43.312;27.152;2023-03-23T04:44:04;100543.52;;;17.57;47.82
34658;BME280;20865;43.312;27.152;2023-03-23T04:46:31;100557.58;;;17.55;47.42
34658;BME280;20865;43.312;27.152;2023-03-23T04:48:58;100553.05;;;17.56;47.61
34658;BME280;20865;43.312;27.152;2023-03-23T04:51:26;100559.31;;;17.56;47.79
34658;BME280;20865;43.312;27.152;2023-03-23T04:53:53;100555.27;;;17.56;47.63
34658;BME280;20865;43.312;27.152;2023-03-23T04:56:20;100559.48;;;17.53;47.62
34658;BME280;20865;43.312;27.152;2023-03-23T04:58:47;100563.53;;;17.53;47.65
34658;BME280;20865;43.312;27.152;2023-03-23T05:01:14;100563.84;;;17.56;47.59
34658;BME280;20865;43.312;27.152;2023-03-23T05:03:41;100571.08;;;17.55;47.69
34658;BME280;20865;43.312;27.152;2023-03-23T05:06:08;100570.92;;;17.58;47.77
34658;BME280;20865;43.312;27.152;2023-03-23T05:11:37;100579.63;;;17.63;47.43
34658;BME280;20865;43.312;27.152;2023-03-23T05:17:07;100585.03;;;17.63;47.64
34658;BME280;20865;43.312;27.152;2023-03-23T05:19:34;100587.67;;;17.65;47.53
34658;BME280;20865;43.312;27.152;2023-03-23T05:22:02;100583.84;;;17.60;47.42
34658;BME280;20865;43.312;27.152;2023-03-23T05:27:27;100591.00;;;17.79;47.67
34658;BME280;20865;43.312;27.152;2023-03-23T05:29:56;100595.97;;;17.87;47.71
34658;BME280;20865;43.312;27.152;2023-03-23T05:32:28;100598.05;;;17.73;48.06
34658;BME280;20865;43.312;27.152;2023-03-23T05:37:56;100599.39;;;17.73;48.16
34658;BME280;20865;43.312;27.152;2023-03-23T05:40:23;100609.34;;;17.72;48.26
34658;BME280;20865;43.312;27.152;2023-03-23T05:42:51;100610.45;;;17.77;48.02
34658;BME280;20865;43.312;27.152;2023-03-23T05:48:23;100610.75;;;17.71;48.11
34658;BME280;20865;43.312;27.152;2023-03-23T05:50:49;100620.63;;;17.72;47.81
34658;BME280;20865;43.312;27.152;2023-03-23T05:56:20;100620.14;;;17.72;47.81
34658;BME280;20865;43.312;27.152;2023-03-23T05:58:47;100621.81;;;17.75;47.69
34658;BME280;20865;43.312;27.152;2023-03-23T06:01:13;100620.53;;;17.73;48.03
34658;BME280;20865;43.312;27.152;2023-03-23T06:03:41;100617.92;;;17.72;48.23
34658;BME280;20865;43.312;27.152;2023-03-23T06:06:11;100626.61;;;17.78;47.97
34658;BME280;20865;43.312;27.152;2023-03-23T06:08:38;100630.02;;;17.82;48.00
34658;BME280;20865;43.312;27.152;2023-03-23T06:11:05;100628.16;;;17.74;48.05
34658;BME280;20865;43.312;27.152;2023-03-23T06:13:32;100634.13;;;17.80;47.99
34658;BME280;20865;43.312;27.152;2023-03-23T06:15:59;100637.22;;;17.81;48.10
34658;BME280;20865;43.312;27.152;2023-03-23T06:18:26;100634.45;;;17.83;48.26
34658;BME280;20865;43.312;27.152;2023-03-23T06:20:57;100642.62;;;17.81;48.36
34658;BME280;20865;43.312;27.152;2023-03-23T06:23:23;100637.63;;;17.82;48.25
34658;BME280;20865;43.312;27.152;2023-03-23T06:25:53;100636.56;;;17.85;48.08
34658;BME280;20865;43.312;27.152;2023-03-23T06:28:19;100640.39;;;17.90;48.18
34658;BME280;20865;43.312;27.152;2023-03-23T06:30:45;100643.16;;;17.88;48.36
34658;BME280;20865;43.312;27.152;2023-03-23T06:33:12;100643.96;;;17.90;48.30
34658;BME280;20865;43.312;27.152;2023-03-23T06:35:39;100647.05;;;17.91;48.11
34658;BME280;20865;43.312;27.152;2023-03-23T06:38:06;100645.47;;;17.96;47.93
34658;BME280;20865;43.312;27.152;2023-03-23T06:40:34;100649.42;;;17.97;47.97
34658;BME280;20865;43.312;27.152;2023-03-23T06:43:03;100646.45;;;18.02;48.12
34658;BME280;20865;43.312;27.152;2023-03-23T06:45:30;100646.55;;;18.00;48.17
34658;BME280;20865;43.312;27.152;2023-03-23T06:47:57;100659.91;;;18.03;47.90
34658;BME280;20865;43.312;27.152;2023-03-23T06:50:24;100654.29;;;17.91;47.73
34658;BME280;20865;43.312;27.152;2023-03-23T06:52:52;100660.23;;;17.97;47.73
34658;BME280;20865;43.312;27.152;2023-03-23T06:55:18;100659.69;;;17.99;47.60
34658;BME280;20865;43.312;27.152;2023-03-23T06:57:47;100667.53;;;18.04;47.55
34658;BME280;20865;43.312;27.152;2023-03-23T07:00:14;100667.05;;;18.04;47.91
34658;BME280;20865;43.312;27.152;2023-03-23T07:02:40;100661.95;;;18.07;48.30
34658;BME280;20865;43.312;27.152;2023-03-23T07:05:08;100666.30;;;18.09;47.90
34658;BME280;20865;43.312;27.152;2023-03-23T07:07:36;100674.72;;;18.12;47.74
34658;BME280;20865;43.312;27.152;2023-03-23T07:10:03;100657.47;;;18.15;47.53
34658;BME280;20865;43.312;27.152;2023-03-23T07:12:30;100668.02;;;18.19;47.61
34658;BME280;20865;43.312;27.152;2023-03-23T07:14:59;100665.62;;;18.22;47.95
34658;BME280;20865;43.312;27.152;2023-03-23T07:17:25;100674.54;;;18.24;48.28
34658;BME280;20865;43.312;27.152;2023-03-23T07:19:52;100667.68;;;18.25;48.39
34658;BME280;20865;43.312;27.152;2023-03-23T07:22:19;100668.77;;;18.30;48.49
34658;BME280;20865;43.312;27.152;2023-03-23T07:24:46;100673.45;;;18.35;48.28
34658;BME280;20865;43.312;27.152;2023-03-23T07:27:14;100672.31;;;18.39;48.44
34658;BME280;20865;43.312;27.152;2023-03-23T07:29:41;100672.14;;;18.42;48.55
34658;BME280;20865;43.312;27.152;2023-03-23T07:32:09;100678.31;;;18.44;48.61
34658;BME280;20865;43.312;27.152;2023-03-23T07:34:36;100671.38;;;18.47;48.60
34658;BME280;20865;43.312;27.152;2023-03-23T07:37:03;100675.55;;;18.46;48.50
34658;BME280;20865;43.312;27.152;2023-03-23T07:39:31;100676.23;;;18.49;48.20
34658;BME280;20865;43.312;27.152;2023-03-23T07:41:58;100677.73;;;18.55;48.16
34658;BME280;20865;43.312;27.152;2023-03-23T07:44:25;100681.41;;;18.61;48.18
34658;BME280;20865;43.312;27.152;2023-03-23T07:46:52;100678.05;;;18.65;48.29
34658;BME280;20865;43.312;27.152;2023-03-23T07:49:19;100682.32;;;18.69;47.79
34658;BME280;20865;43.312;27.152;2023-03-23T07:51:46;100685.03;;;18.69;47.61
34658;BME280;20865;43.312;27.152;2023-03-23T07:54:13;100682.66;;;18.71;47.74
34658;BME280;20865;43.312;27.152;2023-03-23T07:56:41;100687.94;;;18.66;47.61
34658;BME280;20865;43.312;27.152;2023-03-23T07:59:10;100697.48;;;18.73;47.28
34658;BME280;20865;43.312;27.152;2023-03-23T08:01:38;100698.56;;;18.77;47.04
34658;BME280;20865;43.312;27.152;2023-03-23T08:04:05;100700.25;;;18.71;46.88
34658;BME280;20865;43.312;27.152;2023-03-23T08:06:33;100700.78;;;18.78;46.77
34658;BME280;20865;43.312;27.152;2023-03-23T08:09:01;100693.35;;;18.82;46.19
34658;BME280;20865;43.312;27.152;2023-03-23T08:11:30;100689.81;;;18.88;46.04
34658;BME280;20865;43.312;27.152;2023-03-23T08:13:56;100688.32;;;18.83;46.19
34658;BME280;20865;43.312;27.152;2023-03-23T08:16:23;100696.06;;;18.82;46.22
34658;BME280;20865;43.312;27.152;2023-03-23T08:18:51;100695.19;;;18.81;46.04
34658;BME280;20865;43.312;27.152;2023-03-23T08:21:18;100696.95;;;18.89;45.76
34658;BME280;20865;43.312;27.152;2023-03-23T08:23:46;100695.05;;;18.91;45.65
34658;BME280;20865;43.312;27.152;2023-03-23T08:26:13;100696.71;;;18.94;45.76
34658;BME280;20865;43.312;27.152;2023-03-23T08:28:41;100696.78;;;18.92;45.81
34658;BME280;20865;43.312;27.152;2023-03-23T08:31:10;100700.88;;;18.99;45.27
34658;BME280;20865;43.312;27.152;2023-03-23T08:33:37;100699.83;;;19.02;45.29
34658;BME280;20865;43.312;27.152;2023-03-23T08:36:05;100702.43;;;19.03;45.19
34658;BME280;20865;43.312;27.152;2023-03-23T08:38:32;100697.33;;;19.06;45.15
34658;BME280;20865;43.312;27.152;2023-03-23T08:40:59;100703.12;;;19.07;44.94
34658;BME280;20865;43.312;27.152;2023-03-23T08:43:28;100702.67;;;19.08;45.06
34658;BME280;20865;43.312;27.152;2023-03-23T08:45:56;100702.00;;;19.11;44.58
34658;BME280;20865;43.312;27.152;2023-03-23T08:48:24;100700.37;;;19.16;44.82
34658;BME280;20865;43.312;27.152;2023-03-23T08:50:51;100700.75;;;19.17;44.60
34658;BME280;20865;43.312;27.152;2023-03-23T08:53:18;100695.06;;;19.14;44.43
34658;BME280;20865;43.312;27.152;2023-03-23T08:55:47;100700.39;;;19.23;44.51
34658;BME280;20865;43.312;27.152;2023-03-23T08:58:14;100701.64;;;19.24;44.97
34658;BME280;20865;43.312;27.152;2023-03-23T09:00:42;100706.02;;;19.27;44.35
34658;BME280;20865;43.312;27.152;2023-03-23T09:03:08;100711.06;;;19.33;44.10
34658;BME280;20865;43.312;27.152;2023-03-23T09:05:35;100708.66;;;19.36;44.23
34658;BME280;20865;43.312;27.152;2023-03-23T09:08:04;100709.16;;;19.35;44.52
34658;BME280;20865;43.312;27.152;2023-03-23T09:10:31;100701.23;;;19.39;44.22
34658;BME280;20865;43.312;27.152;2023-03-23T09:12:58;100704.69;;;19.41;44.13
34658;BME280;20865;43.312;27.152;2023-03-23T09:15:25;100702.58;;;19.39;42.76
34658;BME280;20865;43.312;27.152;2023-03-23T09:17:52;100702.85;;;19.42;42.60
34658;BME280;20865;43.312;27.152;2023-03-23T09:20:21;100704.33;;;19.47;43.09
34658;BME280;20865;43.312;27.152;2023-03-23T09:22:49;100702.23;;;19.53;43.43
34658;BME280;20865;43.312;27.152;2023-03-23T09:25:17;100697.58;;;19.62;43.87
34658;BME280;20865;43.312;27.152;2023-03-23T09:27:46;100687.84;;;19.66;42.61
34658;BME280;20865;43.312;27.152;2023-03-23T09:30:15;100692.40;;;19.73;42.02
34658;BME280;20865;43.312;27.152;2023-03-23T09:32:43;100690.85;;;19.76;42.71
34658;BME280;20865;43.312;27.152;2023-03-23T09:35:10;100686.25;;;19.62;42.81
34658;BME280;20865;43.312;27.152;2023-03-23T09:37:38;100685.98;;;19.60;43.90
34658;BME280;20865;43.312;27.152;2023-03-23T09:40:06;100689.88;;;19.70;43.76
34658;BME280;20865;43.312;27.152;2023-03-23T09:45:26;100690.28;;;19.64;43.13
34658;BME280;20865;43.312;27.152;2023-03-23T09:48:07;100684.86;;;19.64;43.32
34658;BME280;20865;43.312;27.152;2023-03-23T09:50:31;100691.67;;;19.62;43.17
34658;BME280;20865;43.312;27.152;2023-03-23T09:53:07;100688.44;;;19.64;43.55
34658;BME280;20865;43.312;27.152;2023-03-23T09:55:29;100691.63;;;19.64;44.01
34658;BME280;20865;43.312;27.152;2023-03-23T09:58:01;100686.97;;;19.66;43.95
34658;BME280;20865;43.312;27.152;2023-03-23T10:00:39;100685.80;;;19.70;43.50
34658;BME280;20865;43.312;27.152;2023-03-23T10:03:06;100681.37;;;19.76;43.60
34658;BME280;20865;43.312;27.152;2023-03-23T10:05:38;100686.42;;;19.89;42.34
34658;BME280;20865;43.312;27.152;2023-03-23T10:08:08;100691.46;;;19.95;42.10
34658;BME280;20865;43.312;27.152;2023-03-23T10:10:44;100683.70;;;20.04;41.94
34658;BME280;20865;43.312;27.152;2023-03-23T10:13:13;100688.94;;;20.07;42.03
34658;BME280;20865;43.312;27.152;2023-03-23T10:15:38;100680.98;;;20.11;42.06
34658;BME280;20865;43.312;27.152;2023-03-23T10:20:42;100679.12;;;20.26;41.38
34658;BME280;20865;43.312;27.152;2023-03-23T10:25:36;100680.02;;;20.26;42.30
34658;BME280;20865;43.312;27.152;2023-03-23T10:28:13;100683.67;;;20.32;42.43
34658;BME280;20865;43.312;27.152;2023-03-23T10:30:41;100680.95;;;20.32;42.14
34658;BME280;20865;43.312;27.152;2023-03-23T10:33:11;100680.23;;;20.16;42.42
34658;BME280;20865;43.312;27.152;2023-03-23T10:35:40;100676.33;;;20.27;43.34
34658;BME280;20865;43.312;27.152;2023-03-23T10:38:11;100676.50;;;20.38;42.94
34658;BME280;20865;43.312;27.152;2023-03-23T10:40:35;100669.14;;;20.40;42.51
34658;BME280;20865;43.312;27.152;2023-03-23T10:43:04;100668.52;;;20.50;42.07
34658;BME280;20865;43.312;27.152;2023-03-23T10:45:31;100665.14;;;20.46;41.46
34658;BME280;20865;43.312;27.152;2023-03-23T10:48:07;100659.84;;;20.52;41.52
34658;BME280;20865;43.312;27.152;2023-03-23T10:50:30;100661.00;;;20.55;40.73
34658;BME280;20865;43.312;27.152;2023-03-23T10:52:58;100657.30;;;20.49;41.11
34658;BME280;20865;43.312;27.152;2023-03-23T10:55:36;100660.88;;;20.56;41.08
34658;BME280;20865;43.312;27.152;2023-03-23T10:58:09;100660.20;;;20.45;41.34
34658;BME280;20865;43.312;27.152;2023-03-23T11:00:33;100660.61;;;20.32;41.80
34658;BME280;20865;43.312;27.152;2023-03-23T11:03:04;100658.39;;;20.32;41.78
34658;BME280;20865;43.312;27.152;2023-03-23T11:05:36;100662.09;;;20.23;41.30
34658;BME280;20865;43.312;27.152;2023-03-23T11:08:00;100675.08;;;20.11;41.48
34658;BME280;20865;43.312;27.152;2023-03-23T11:10:37;100661.14;;;20.10;41.86
34658;BME280;20865;43.312;27.152;2023-03-23T11:12:58;100658.80;;;20.11;41.79
34658;BME280;20865;43.312;27.152;2023-03-23T11:15:41;100664.34;;;20.10;42.12
34658;BME280;20865;43.312;27.152;2023-03-23T11:18:05;100652.81;;;20.13;42.16
34658;BME280;20865;43.312;27.152;2023-03-23T11:20:37;100657.56;;;20.10;41.55
34658;BME280;20865;43.312;27.152;2023-03-23T11:23:17;100643.80;;;20.13;41.83
34658;BME280;20865;43.312;27.152;2023-03-23T11:28:25;100637.99;;;20.19;42.84
34658;BME280;20865;43.312;27.152;2023-03-23T11:30:52;100629.23;;;20.28;42.72
34658;BME280;20865;43.312;27.152;2023-03-23T11:33:19;100628.35;;;20.35;41.95
34658;BME280;20865;43.312;27.152;2023-03-23T11:35:46;100628.82;;;20.41;42.27
34658;BME280;20865;43.312;27.152;2023-03-23T11:38:18;100626.58;;;20.48;42.34
34658;BME280;20865;43.312;27.152;2023-03-23T11:40:49;100620.77;;;20.47;42.40
34658;BME280;20865;43.312;27.152;2023-03-23T11:43:24;100626.67;;;20.61;42.60
34658;BME280;20865;43.312;27.152;2023-03-23T11:48:49;100619.92;;;20.74;41.91
34658;BME280;20865;43.312;27.152;2023-03-23T11:51:16;100615.09;;;20.72;41.11
34658;BME280;20865;43.312;27.152;2023-03-23T11:56:29;100608.77;;;20.71;40.19
34658;BME280;20865;43.312;27.152;2023-03-23T11:58:55;100612.44;;;20.77;40.10
34658;BME280;20865;43.312;27.152;2023-03-23T12:01:44;100606.31;;;20.81;40.74
34658;BME280;20865;43.312;27.152;2023-03-23T12:20:23;100597.92;;;21.56;37.92
34658;BME280;20865;43.312;27.152;2023-03-23T12:22:58;100588.50;;;21.80;38.72
34658;BME280;20865;43.312;27.152;2023-03-23T12:28:01;100588.95;;;21.93;39.28
34658;BME280;20865;43.312;27.152;2023-03-23T12:30:29;100589.66;;;21.89;39.62
34658;BME280;20865;43.312;27.152;2023-03-23T12:33:04;100585.16;;;21.82;38.08
34658;BME280;20865;43.312;27.152;2023-03-23T12:38:02;100586.59;;;21.75;38.52
34658;BME280;20865;43.312;27.152;2023-03-23T12:40:30;100580.63;;;21.70;38.92
34658;BME280;20865;43.312;27.152;2023-03-23T12:45:57;100582.97;;;21.56;40.28
34658;BME280;20865;43.312;27.152;2023-03-23T12:48:28;100576.61;;;21.50;40.02
34658;BME280;20865;43.312;27.152;2023-03-23T12:51:02;100574.05;;;21.54;39.88
34658;BME280;20865;43.312;27.152;2023-03-23T12:58:56;100576.33;;;21.60;39.02
34658;BME280;20865;43.312;27.152;2023-03-23T13:01:23;100574.33;;;21.57;38.23
34658;BME280;20865;43.312;27.152;2023-03-23T13:04:12;100569.44;;;21.49;38.29
34658;BME280;20865;43.312;27.152;2023-03-23T13:06:38;100564.80;;;21.44;39.57
34658;BME280;20865;43.312;27.152;2023-03-23T13:11:47;100569.07;;;21.48;39.10
34658;BME280;20865;43.312;27.152;2023-03-23T13:14:18;100570.80;;;21.49;39.49
34658;BME280;20865;43.312;27.152;2023-03-23T13:16:49;100563.30;;;21.53;39.08
34658;BME280;20865;43.312;27.152;2023-03-23T13:19:27;100561.78;;;21.49;38.95
34658;BME280;20865;43.312;27.152;2023-03-23T13:24:33;100563.30;;;21.40;38.36
34658;BME280;20865;43.312;27.152;2023-03-23T13:27:01;100563.38;;;21.26;40.19
34658;BME280;20865;43.312;27.152;2023-03-23T13:29:28;100566.23;;;21.37;38.93
34658;BME280;20865;43.312;27.152;2023-03-23T13:32:06;100560.07;;;21.28;39.00
34658;BME280;20865;43.312;27.152;2023-03-23T13:34:34;100561.22;;;21.31;39.23
34658;BME280;20865;43.312;27.152;2023-03-23T13:37:06;100560.94;;;21.28;39.90
34658;BME280;20865;43.312;27.152;2023-03-23T13:40:34;100562.87;;;21.26;40.40
34658;BME280;20865;43.312;27.152;2023-03-23T13:44:44;100560.38;;;21.23;40.39
34658;BME280;20865;43.312;27.152;2023-03-23T13:47:21;100557.91;;;21.20;40.52
34658;BME280;20865;43.312;27.152;2023-03-23T13:57:50;100558.11;;;21.17;40.91
34658;BME280;20865;43.312;27.152;2023-03-23T14:03:00;100560.55;;;21.14;41.06
34658;BME280;20865;43.312;27.152;2023-03-23T14:06:12;100562.11;;;21.11;41.25
34658;BME280;20865;43.312;27.152;2023-03-23T14:08:00;100555.61;;;21.14;41.11
34658;BME280;20865;43.312;27.152;2023-03-23T14:10:36;100561.91;;;21.14;40.97
34658;BME280;20865;43.312;27.152;2023-03-23T14:13:04;100561.34;;;21.09;41.07
34658;BME280;20865;43.312;27.152;2023-03-23T14:18:01;100561.34;;;21.09;41.17
34658;BME280;20865;43.312;27.152;2023-03-23T14:20:34;100561.83;;;21.09;41.28
34658;BME280;20865;43.312;27.152;2023-03-23T14:22:58;100559.06;;;21.16;41.21
34658;BME280;20865;43.312;27.152;2023-03-23T14:25:30;100558.86;;;21.19;41.14
34658;BME280;20865;43.312;27.152;2023-03-23T14:27:53;100565.98;;;21.34;40.98
34658;BME280;20865;43.312;27.152;2023-03-23T14:30:21;100565.27;;;21.38;41.07